sensor_id;sensor_type;location;lat;lon;timestamp;P1;durP1;ratioP1;P2;durP2;ratioP2
21215;SDS011;10765;50.954;5.322;2023-04-01T00:01:23;3.83;;;1.47;;
21215;SDS011;10765;50.954;5.322;2023-04-01T00:03:49;4.53;;;1.10;;
21215;SDS011;10765;50.954;5.322;2023-04-01T00:06:18;3.20;;;1.30;;
21215;SDS011;10765;50.954;5.322;2023-04-01T00:08:45;5.37;;;1.53;;
21215;SDS011;10765;50.954;5.322;2023-04-01T00:11:12;5.23;;;1.43;;
21215;SDS011;10765;50.954;5.322;2023-04-01T00:13:39;4.20;;;1.23;;
21215;SDS011;10765;50.954;5.322;2023-04-01T00:16:07;3.17;;;0.97;;
21215;SDS011;10765;50.954;5.322;2023-04-01T00:18:34;3.90;;;1.10;;
21215;SDS011;10765;50.954;5.322;2023-04-01T00:21:01;4.43;;;1.07;;
21215;SDS011;10765;50.954;5.322;2023-04-01T00:23:33;2.83;;;1.10;;
21215;SDS011;10765;50.954;5.322;2023-04-01T00:26:00;3.13;;;1.23;;
21215;SDS011;10765;50.954;5.322;2023-04-01T00:28:28;4.47;;;0.90;;
21215;SDS011;10765;50.954;5.322;2023-04-01T00:30:56;3.50;;;1.10;;
21215;SDS011;10765;50.954;5.322;2023-04-01T00:33:23;5.30;;;1.27;;
21215;SDS011;10765;50.954;5.322;2023-04-01T00:35:50;4.37;;;0.83;;
21215;SDS011;10765;50.954;5.322;2023-04-01T00:38:17;3.27;;;1.30;;
21215;SDS011;10765;50.954;5.322;2023-04-01T00:40:45;3.37;;;1.10;;
21215;SDS011;10765;50.954;5.322;2023-04-01T00:43:13;3.67;;;1.33;;
21215;SDS011;10765;50.954;5.322;2023-04-01T00:45:43;3.57;;;1.50;;
21215;SDS011;10765;50.954;5.322;2023-04-01T00:48:14;3.03;;;1.30;;
21215;SDS011;10765;50.954;5.322;2023-04-01T00:50:44;4.87;;;1.30;;
21215;SDS011;10765;50.954;5.322;2023-04-01T00:53:15;2.83;;;1.03;;
21215;SDS011;10765;50.954;5.322;2023-04-01T00:55:44;4.63;;;1.37;;
21215;SDS011;10765;50.954;5.322;2023-04-01T00:58:16;2.90;;;1.10;;
21215;SDS011;10765;50.954;5.322;2023-04-01T01:00:46;3.33;;;1.30;;
21215;SDS011;10765;50.954;5.322;2023-04-01T01:03:16;3.00;;;1.13;;
21215;SDS011;10765;50.954;5.322;2023-04-01T01:05:54;3.13;;;1.40;;
21215;SDS011;10765;50.954;5.322;2023-04-01T01:08:35;2.97;;;1.40;;
21215;SDS011;10765;50.954;5.322;2023-04-01T01:11:14;4.33;;;1.40;;
21215;SDS011;10765;50.954;5.322;2023-04-01T01:13:53;3.97;;;2.00;;
21215;SDS011;10765;50.954;5.322;2023-04-01T01:16:27;3.10;;;1.90;;
21215;SDS011;10765;50.954;5.322;2023-04-01T01:18:58;3.40;;;1.97;;
21215;SDS011;10765;50.954;5.322;2023-04-01T01:24:44;5.37;;;2.20;;
21215;SDS011;10765;50.954;5.322;2023-04-01T01:27:22;4.67;;;2.60;;
21215;SDS011;10765;50.954;5.322;2023-04-01T01:30:00;3.83;;;2.07;;
21215;SDS011;10765;50.954;5.322;2023-04-01T01:32:58;6.50;;;2.47;;
21215;SDS011;10765;50.954;5.322;2023-04-01T01:35:36;5.63;;;3.03;;
21215;SDS011;10765;50.954;5.322;2023-04-01T01:38:06;6.37;;;2.17;;
21215;SDS011;10765;50.954;5.322;2023-04-01T01:40:36;3.13;;;1.90;;
21215;SDS011;10765;50.954;5.322;2023-04-01T01:43:06;3.70;;;1.57;;
21215;SDS011;10765;50.954;5.322;2023-04-01T01:45:39;3.37;;;1.63;;
21215;SDS011;10765;50.954;5.322;2023-04-01T01:48:10;4.87;;;1.40;;
21215;SDS011;10765;50.954;5.322;2023-04-01T01:50:39;5.70;;;1.80;;
21215;SDS011;10765;50.954;5.322;2023-04-01T01:53:09;7.37;;;1.77;;
21215;SDS011;10765;50.954;5.322;2023-04-01T01:55:38;3.67;;;1.63;;
21215;SDS011;10765;50.954;5.322;2023-04-01T01:58:11;3.87;;;1.63;;
21215;SDS011;10765;50.954;5.322;2023-04-01T02:00:41;3.17;;;1.60;;
21215;SDS011;10765;50.954;5.322;2023-04-01T02:03:13;2.67;;;1.50;;
21215;SDS011;10765;50.954;5.322;2023-04-01T02:05:42;2.80;;;1.70;;
21215;SDS011;10765;50.954;5.322;2023-04-01T02:08:12;3.30;;;1.50;;
21215;SDS011;10765;50.954;5.322;2023-04-01T02:10:42;4.33;;;1.90;;
21215;SDS011;10765;50.954;5.322;2023-04-01T02:13:15;1.87;;;1.40;;
21215;SDS011;10765;50.954;5.322;2023-04-01T02:15:47;3.07;;;1.80;;
21215;SDS011;10765;50.954;5.322;2023-04-01T02:18:16;3.33;;;2.10;;
21215;SDS011;10765;50.954;5.322;2023-04-01T02:20:47;4.10;;;1.87;;
21215;SDS011;10765;50.954;5.322;2023-04-01T02:23:15;3.43;;;2.10;;
21215;SDS011;10765;50.954;5.322;2023-04-01T02:25:42;2.63;;;1.80;;
21215;SDS011;10765;50.954;5.322;2023-04-01T02:28:10;2.03;;;1.77;;
21215;SDS011;10765;50.954;5.322;2023-04-01T02:30:41;1.93;;;1.77;;
21215;SDS011;10765;50.954;5.322;2023-04-01T02:33:10;3.63;;;1.60;;
21215;SDS011;10765;50.954;5.322;2023-04-01T02:35:37;3.63;;;1.63;;
21215;SDS011;10765;50.954;5.322;2023-04-01T02:38:05;3.50;;;2.00;;
21215;SDS011;10765;50.954;5.322;2023-04-01T02:40:45;1.90;;;1.30;;
21215;SDS011;10765;50.954;5.322;2023-04-01T02:43:14;2.57;;;1.53;;
21215;SDS011;10765;50.954;5.322;2023-04-01T02:45:42;3.10;;;1.50;;
21215;SDS011;10765;50.954;5.322;2023-04-01T02:48:09;1.80;;;1.47;;
21215;SDS011;10765;50.954;5.322;2023-04-01T02:50:37;2.20;;;1.50;;
21215;SDS011;10765;50.954;5.322;2023-04-01T02:53:06;2.03;;;1.53;;
21215;SDS011;10765;50.954;5.322;2023-04-01T02:55:33;2.73;;;1.63;;
21215;SDS011;10765;50.954;5.322;2023-04-01T02:58:00;2.20;;;1.57;;
21215;SDS011;10765;50.954;5.322;2023-04-01T03:00:27;1.67;;;1.57;;
21215;SDS011;10765;50.954;5.322;2023-04-01T03:02:54;1.70;;;1.47;;
21215;SDS011;10765;50.954;5.322;2023-04-01T03:05:21;3.30;;;2.03;;
21215;SDS011;10765;50.954;5.322;2023-04-01T03:07:48;2.00;;;1.70;;
21215;SDS011;10765;50.954;5.322;2023-04-01T03:10:17;1.80;;;1.70;;
21215;SDS011;10765;50.954;5.322;2023-04-01T03:12:44;3.63;;;1.93;;
21215;SDS011;10765;50.954;5.322;2023-04-01T03:15:11;3.23;;;2.30;;
21215;SDS011;10765;50.954;5.322;2023-04-01T03:17:39;3.80;;;2.53;;
21215;SDS011;10765;50.954;5.322;2023-04-01T03:20:07;5.23;;;2.23;;
21215;SDS011;10765;50.954;5.322;2023-04-01T03:22:35;2.83;;;2.23;;
21215;SDS011;10765;50.954;5.322;2023-04-01T03:25:03;6.60;;;2.37;;
21215;SDS011;10765;50.954;5.322;2023-04-01T03:27:33;4.80;;;2.43;;
21215;SDS011;10765;50.954;5.322;2023-04-01T03:30:01;4.30;;;2.70;;
21215;SDS011;10765;50.954;5.322;2023-04-01T03:32:28;5.57;;;2.70;;
21215;SDS011;10765;50.954;5.322;2023-04-01T03:34:57;4.27;;;2.80;;
21215;SDS011;10765;50.954;5.322;2023-04-01T03:37:24;4.40;;;2.93;;
21215;SDS011;10765;50.954;5.322;2023-04-01T03:39:51;2.43;;;2.20;;
21215;SDS011;10765;50.954;5.322;2023-04-01T03:42:18;2.57;;;2.20;;
21215;SDS011;10765;50.954;5.322;2023-04-01T03:44:46;3.97;;;2.13;;
21215;SDS011;10765;50.954;5.322;2023-04-01T03:47:13;3.30;;;2.40;;
21215;SDS011;10765;50.954;5.322;2023-04-01T03:49:40;3.27;;;2.53;;
21215;SDS011;10765;50.954;5.322;2023-04-01T03:52:08;4.40;;;3.10;;
21215;SDS011;10765;50.954;5.322;2023-04-01T03:54:36;2.37;;;1.90;;
21215;SDS011;10765;50.954;5.322;2023-04-01T03:57:04;3.93;;;2.50;;
21215;SDS011;10765;50.954;5.322;2023-04-01T03:59:31;3.83;;;2.50;;
21215;SDS011;10765;50.954;5.322;2023-04-01T04:01:59;3.90;;;2.63;;
21215;SDS011;10765;50.954;5.322;2023-04-01T04:04:26;5.30;;;2.97;;
21215;SDS011;10765;50.954;5.322;2023-04-01T04:06:53;4.90;;;2.97;;
21215;SDS011;10765;50.954;5.322;2023-04-01T04:09:21;2.60;;;2.40;;
21215;SDS011;10765;50.954;5.322;2023-04-01T04:11:48;6.10;;;3.03;;
21215;SDS011;10765;50.954;5.322;2023-04-01T04:14:15;4.67;;;3.30;;
21215;SDS011;10765;50.954;5.322;2023-04-01T04:16:42;3.83;;;2.60;;
21215;SDS011;10765;50.954;5.322;2023-04-01T04:19:12;4.33;;;2.87;;
21215;SDS011;10765;50.954;5.322;2023-04-01T04:21:39;3.90;;;2.90;;
21215;SDS011;10765;50.954;5.322;2023-04-01T04:24:07;4.53;;;3.03;;
21215;SDS011;10765;50.954;5.322;2023-04-01T04:26:34;3.53;;;2.43;;
21215;SDS011;10765;50.954;5.322;2023-04-01T04:29:01;3.17;;;2.60;;
21215;SDS011;10765;50.954;5.322;2023-04-01T04:31:29;3.60;;;2.83;;
21215;SDS011;10765;50.954;5.322;2023-04-01T04:33:55;3.67;;;2.90;;
21215;SDS011;10765;50.954;5.322;2023-04-01T04:36:25;3.50;;;2.83;;
21215;SDS011;10765;50.954;5.322;2023-04-01T04:38:52;6.47;;;3.60;;
21215;SDS011;10765;50.954;5.322;2023-04-01T04:41:19;6.60;;;3.17;;
21215;SDS011;10765;50.954;5.322;2023-04-01T04:43:51;6.27;;;3.30;;
21215;SDS011;10765;50.954;5.322;2023-04-01T04:46:18;6.47;;;3.60;;
21215;SDS011;10765;50.954;5.322;2023-04-01T04:48:46;6.63;;;3.80;;
21215;SDS011;10765;50.954;5.322;2023-04-01T04:51:14;6.13;;;3.93;;
21215;SDS011;10765;50.954;5.322;2023-04-01T04:53:42;9.03;;;4.43;;
21215;SDS011;10765;50.954;5.322;2023-04-01T04:56:10;5.87;;;4.07;;
21215;SDS011;10765;50.954;5.322;2023-04-01T04:58:37;7.17;;;4.97;;
21215;SDS011;10765;50.954;5.322;2023-04-01T05:01:05;6.00;;;4.60;;
21215;SDS011;10765;50.954;5.322;2023-04-01T05:03:33;7.83;;;5.30;;
21215;SDS011;10765;50.954;5.322;2023-04-01T05:06:00;8.13;;;5.50;;
21215;SDS011;10765;50.954;5.322;2023-04-01T05:08:27;9.37;;;5.77;;
21215;SDS011;10765;50.954;5.322;2023-04-01T05:10:55;7.67;;;5.37;;
21215;SDS011;10765;50.954;5.322;2023-04-01T05:13:22;8.70;;;6.33;;
21215;SDS011;10765;50.954;5.322;2023-04-01T05:15:49;11.07;;;6.83;;
21215;SDS011;10765;50.954;5.322;2023-04-01T05:18:16;8.43;;;5.90;;
21215;SDS011;10765;50.954;5.322;2023-04-01T05:20:47;9.13;;;6.70;;
21215;SDS011;10765;50.954;5.322;2023-04-01T05:23:14;10.13;;;6.70;;
21215;SDS011;10765;50.954;5.322;2023-04-01T05:25:41;12.80;;;7.27;;
21215;SDS011;10765;50.954;5.322;2023-04-01T05:28:09;9.30;;;6.67;;
21215;SDS011;10765;50.954;5.322;2023-04-01T05:30:36;9.33;;;7.27;;
21215;SDS011;10765;50.954;5.322;2023-04-01T05:33:05;10.27;;;6.93;;
21215;SDS011;10765;50.954;5.322;2023-04-01T05:35:32;8.90;;;6.60;;
21215;SDS011;10765;50.954;5.322;2023-04-01T05:37:59;9.40;;;6.23;;
21215;SDS011;10765;50.954;5.322;2023-04-01T05:40:26;8.60;;;6.93;;
21215;SDS011;10765;50.954;5.322;2023-04-01T05:42:53;9.33;;;6.67;;
21215;SDS011;10765;50.954;5.322;2023-04-01T05:45:22;10.33;;;6.37;;
21215;SDS011;10765;50.954;5.322;2023-04-01T05:47:50;9.30;;;6.27;;
21215;SDS011;10765;50.954;5.322;2023-04-01T05:50:17;7.90;;;7.10;;
21215;SDS011;10765;50.954;5.322;2023-04-01T05:52:44;8.70;;;6.70;;
21215;SDS011;10765;50.954;5.322;2023-04-01T05:55:14;6.83;;;6.07;;
21215;SDS011;10765;50.954;5.322;2023-04-01T05:57:41;9.27;;;6.07;;
21215;SDS011;10765;50.954;5.322;2023-04-01T06:00:10;9.47;;;6.70;;
21215;SDS011;10765;50.954;5.322;2023-04-01T06:02:40;8.67;;;5.80;;
21215;SDS011;10765;50.954;5.322;2023-04-01T06:05:14;7.30;;;5.50;;
21215;SDS011;10765;50.954;5.322;2023-04-01T06:07:44;6.60;;;5.00;;
21215;SDS011;10765;50.954;5.322;2023-04-01T06:10:12;5.63;;;4.80;;
21215;SDS011;10765;50.954;5.322;2023-04-01T06:12:49;5.27;;;4.37;;
21215;SDS011;10765;50.954;5.322;2023-04-01T06:15:25;6.87;;;5.03;;
21215;SDS011;10765;50.954;5.322;2023-04-01T06:18:14;5.90;;;4.80;;
21215;SDS011;10765;50.954;5.322;2023-04-01T06:20:57;5.30;;;4.80;;
21215;SDS011;10765;50.954;5.322;2023-04-01T06:23:31;5.13;;;4.57;;
21215;SDS011;10765;50.954;5.322;2023-04-01T06:26:16;6.27;;;5.00;;
21215;SDS011;10765;50.954;5.322;2023-04-01T06:31:54;4.67;;;4.23;;
21215;SDS011;10765;50.954;5.322;2023-04-01T06:34:52;4.33;;;3.67;;
21215;SDS011;10765;50.954;5.322;2023-04-01T06:37:48;4.73;;;3.77;;
21215;SDS011;10765;50.954;5.322;2023-04-01T06:40:46;4.13;;;3.73;;
21215;SDS011;10765;50.954;5.322;2023-04-01T06:43:37;3.20;;;3.00;;
21215;SDS011;10765;50.954;5.322;2023-04-01T06:46:14;4.33;;;3.37;;
21215;SDS011;10765;50.954;5.322;2023-04-01T06:48:56;3.70;;;3.40;;
21215;SDS011;10765;50.954;5.322;2023-04-01T06:51:42;4.10;;;3.57;;
21215;SDS011;10765;50.954;5.322;2023-04-01T06:54:18;4.10;;;3.33;;
21215;SDS011;10765;50.954;5.322;2023-04-01T06:56:51;3.07;;;2.80;;
21215;SDS011;10765;50.954;5.322;2023-04-01T06:59:25;3.23;;;2.83;;
21215;SDS011;10765;50.954;5.322;2023-04-01T07:01:55;2.63;;;2.37;;
21215;SDS011;10765;50.954;5.322;2023-04-01T07:04:25;2.00;;;1.90;;
21215;SDS011;10765;50.954;5.322;2023-04-01T07:06:58;2.17;;;2.00;;
21215;SDS011;10765;50.954;5.322;2023-04-01T07:09:28;2.03;;;1.93;;
21215;SDS011;10765;50.954;5.322;2023-04-01T07:11:59;1.80;;;1.70;;
21215;SDS011;10765;50.954;5.322;2023-04-01T07:14:30;2.00;;;1.90;;
21215;SDS011;10765;50.954;5.322;2023-04-01T07:17:02;1.90;;;1.80;;
21215;SDS011;10765;50.954;5.322;2023-04-01T07:19:34;2.53;;;1.87;;
21215;SDS011;10765;50.954;5.322;2023-04-01T07:22:14;1.97;;;1.73;;
21215;SDS011;10765;50.954;5.322;2023-04-01T07:24:47;1.73;;;1.63;;
21215;SDS011;10765;50.954;5.322;2023-04-01T07:27:15;1.50;;;1.40;;
21215;SDS011;10765;50.954;5.322;2023-04-01T07:29:41;1.73;;;1.40;;
21215;SDS011;10765;50.954;5.322;2023-04-01T07:32:16;1.77;;;1.67;;
21215;SDS011;10765;50.954;5.322;2023-04-01T07:37:47;1.30;;;1.23;;
21215;SDS011;10765;50.954;5.322;2023-04-01T07:40:26;1.87;;;1.23;;
21215;SDS011;10765;50.954;5.322;2023-04-01T07:43:07;1.53;;;1.43;;
21215;SDS011;10765;50.954;5.322;2023-04-01T07:45:58;1.43;;;1.33;;
21215;SDS011;10765;50.954;5.322;2023-04-01T07:48:35;1.50;;;1.30;;
21215;SDS011;10765;50.954;5.322;2023-04-01T07:51:09;1.67;;;1.50;;
21215;SDS011;10765;50.954;5.322;2023-04-01T07:53:43;1.50;;;1.40;;
21215;SDS011;10765;50.954;5.322;2023-04-01T07:56:17;2.03;;;1.87;;
21215;SDS011;10765;50.954;5.322;2023-04-01T07:58:54;1.87;;;1.77;;
21215;SDS011;10765;50.954;5.322;2023-04-01T08:01:30;2.23;;;2.07;;
21215;SDS011;10765;50.954;5.322;2023-04-01T08:04:14;2.30;;;1.70;;
21215;SDS011;10765;50.954;5.322;2023-04-01T08:06:50;2.40;;;2.20;;
21215;SDS011;10765;50.954;5.322;2023-04-01T08:09:29;2.97;;;1.70;;
21215;SDS011;10765;50.954;5.322;2023-04-01T08:12:04;1.90;;;1.80;;
21215;SDS011;10765;50.954;5.322;2023-04-01T08:14:42;1.70;;;1.50;;
21215;SDS011;10765;50.954;5.322;2023-04-01T08:17:18;2.30;;;1.30;;
21215;SDS011;10765;50.954;5.322;2023-04-01T08:19:56;1.60;;;1.50;;
21215;SDS011;10765;50.954;5.322;2023-04-01T08:22:35;1.73;;;1.60;;
21215;SDS011;10765;50.954;5.322;2023-04-01T08:25:10;2.57;;;1.80;;
21215;SDS011;10765;50.954;5.322;2023-04-01T08:27:44;1.80;;;1.60;;
21215;SDS011;10765;50.954;5.322;2023-04-01T08:30:16;3.00;;;1.90;;
21215;SDS011;10765;50.954;5.322;2023-04-01T08:32:46;2.23;;;2.00;;
21215;SDS011;10765;50.954;5.322;2023-04-01T08:35:17;2.43;;;2.17;;
21215;SDS011;10765;50.954;5.322;2023-04-01T08:37:50;2.17;;;1.97;;
21215;SDS011;10765;50.954;5.322;2023-04-01T08:40:28;2.20;;;2.00;;
21215;SDS011;10765;50.954;5.322;2023-04-01T08:43:09;2.80;;;2.50;;
21215;SDS011;10765;50.954;5.322;2023-04-01T08:45:51;3.43;;;2.80;;
21215;SDS011;10765;50.954;5.322;2023-04-01T08:48:41;2.30;;;2.13;;
21215;SDS011;10765;50.954;5.322;2023-04-01T08:51:32;2.47;;;2.27;;
21215;SDS011;10765;50.954;5.322;2023-04-01T08:54:24;3.10;;;2.30;;
21215;SDS011;10765;50.954;5.322;2023-04-01T08:57:06;2.70;;;2.50;;
21215;SDS011;10765;50.954;5.322;2023-04-01T08:59:47;2.83;;;2.43;;
21215;SDS011;10765;50.954;5.322;2023-04-01T09:02:32;2.30;;;2.20;;
21215;SDS011;10765;50.954;5.322;2023-04-01T09:05:22;2.00;;;1.90;;
21215;SDS011;10765;50.954;5.322;2023-04-01T09:08:03;2.77;;;2.10;;
21215;SDS011;10765;50.954;5.322;2023-04-01T09:10:41;2.80;;;2.50;;
21215;SDS011;10765;50.954;5.322;2023-04-01T09:13:31;2.20;;;2.10;;
21215;SDS011;10765;50.954;5.322;2023-04-01T09:16:20;2.67;;;2.47;;
21215;SDS011;10765;50.954;5.322;2023-04-01T09:19:06;2.97;;;2.77;;
21215;SDS011;10765;50.954;5.322;2023-04-01T09:21:46;2.60;;;2.40;;
21215;SDS011;10765;50.954;5.322;2023-04-01T09:24:41;3.00;;;2.47;;
21215;SDS011;10765;50.954;5.322;2023-04-01T09:27:22;2.90;;;2.70;;
21215;SDS011;10765;50.954;5.322;2023-04-01T09:30:03;3.10;;;2.90;;
21215;SDS011;10765;50.954;5.322;2023-04-01T09:32:54;2.77;;;2.57;;
21215;SDS011;10765;50.954;5.322;2023-04-01T09:35:38;3.80;;;2.90;;
21215;SDS011;10765;50.954;5.322;2023-04-01T09:38:18;2.73;;;2.53;;
21215;SDS011;10765;50.954;5.322;2023-04-01T09:40:49;3.10;;;2.40;;
21215;SDS011;10765;50.954;5.322;2023-04-01T09:43:25;2.03;;;1.90;;
21215;SDS011;10765;50.954;5.322;2023-04-01T09:46:01;2.20;;;2.00;;
21215;SDS011;10765;50.954;5.322;2023-04-01T09:48:50;1.73;;;1.63;;
21215;SDS011;10765;50.954;5.322;2023-04-01T09:51:37;2.03;;;1.93;;
21215;SDS011;10765;50.954;5.322;2023-04-01T09:54:13;2.20;;;2.07;;
21215;SDS011;10765;50.954;5.322;2023-04-01T10:00:25;1.80;;;1.70;;
21215;SDS011;10765;50.954;5.322;2023-04-01T10:09:39;1.60;;;1.50;;
21215;SDS011;10765;50.954;5.322;2023-04-01T10:12:50;1.80;;;1.70;;
21215;SDS011;10765;50.954;5.322;2023-04-01T10:15:48;1.80;;;1.70;;
21215;SDS011;10765;50.954;5.322;2023-04-01T10:22:00;2.00;;;1.90;;
21215;SDS011;10765;50.954;5.322;2023-04-01T10:25:04;1.97;;;1.83;;
21215;SDS011;10765;50.954;5.322;2023-04-01T10:31:02;2.10;;;1.90;;
21215;SDS011;10765;50.954;5.322;2023-04-01T10:34:14;2.60;;;2.40;;
21215;SDS011;10765;50.954;5.322;2023-04-01T10:37:11;2.77;;;2.57;;
21215;SDS011;10765;50.954;5.322;2023-04-01T10:45:52;2.10;;;2.00;;
21215;SDS011;10765;50.954;5.322;2023-04-01T10:54:56;2.53;;;2.33;;
21215;SDS011;10765;50.954;5.322;2023-04-01T10:58:01;2.93;;;2.73;;
21215;SDS011;10765;50.954;5.322;2023-04-01T11:04:05;3.90;;;3.60;;
21215;SDS011;10765;50.954;5.322;2023-04-01T11:10:47;3.83;;;3.53;;
21215;SDS011;10765;50.954;5.322;2023-04-01T11:16:37;4.10;;;3.80;;
21215;SDS011;10765;50.954;5.322;2023-04-01T11:19:32;4.13;;;3.83;;
21215;SDS011;10765;50.954;5.322;2023-04-01T11:22:44;4.20;;;3.87;;
21215;SDS011;10765;50.954;5.322;2023-04-01T11:25:46;4.67;;;4.37;;
21215;SDS011;10765;50.954;5.322;2023-04-01T11:28:27;5.47;;;4.97;;
21215;SDS011;10765;50.954;5.322;2023-04-01T11:31:23;6.10;;;5.70;;
21215;SDS011;10765;50.954;5.322;2023-04-01T11:34:04;6.50;;;6.00;;
21215;SDS011;10765;50.954;5.322;2023-04-01T11:36:54;6.97;;;6.33;;
21215;SDS011;10765;50.954;5.322;2023-04-01T11:39:29;6.63;;;6.17;;
21215;SDS011;10765;50.954;5.322;2023-04-01T11:42:07;7.43;;;6.83;;
21215;SDS011;10765;50.954;5.322;2023-04-01T11:44:45;7.93;;;7.23;;
21215;SDS011;10765;50.954;5.322;2023-04-01T11:47:22;7.87;;;7.27;;
21215;SDS011;10765;50.954;5.322;2023-04-01T11:50:10;8.13;;;7.43;;
21215;SDS011;10765;50.954;5.322;2023-04-01T11:53:05;8.20;;;7.50;;
21215;SDS011;10765;50.954;5.322;2023-04-01T11:55:56;8.57;;;7.87;;
21215;SDS011;10765;50.954;5.322;2023-04-01T11:58:49;8.33;;;7.63;;
21215;SDS011;10765;50.954;5.322;2023-04-01T12:01:36;9.17;;;8.37;;
21215;SDS011;10765;50.954;5.322;2023-04-01T12:07:23;9.10;;;8.30;;
21215;SDS011;10765;50.954;5.322;2023-04-01T12:09:59;8.20;;;7.50;;
21215;SDS011;10765;50.954;5.322;2023-04-01T12:12:38;7.70;;;6.97;;
21215;SDS011;10765;50.954;5.322;2023-04-01T12:15:17;7.37;;;6.77;;
21215;SDS011;10765;50.954;5.322;2023-04-01T12:17:51;6.50;;;6.00;;
21215;SDS011;10765;50.954;5.322;2023-04-01T12:20:28;7.70;;;6.90;;
21215;SDS011;10765;50.954;5.322;2023-04-01T12:23:07;7.30;;;6.17;;
21215;SDS011;10765;50.954;5.322;2023-04-01T12:25:52;5.70;;;5.20;;
21215;SDS011;10765;50.954;5.322;2023-04-01T12:28:37;4.30;;;3.90;;
21215;SDS011;10765;50.954;5.322;2023-04-01T12:31:18;3.87;;;3.53;;
21215;SDS011;10765;50.954;5.322;2023-04-01T12:37:06;2.53;;;2.33;;
21215;SDS011;10765;50.954;5.322;2023-04-01T12:39:47;2.57;;;2.37;;
21215;SDS011;10765;50.954;5.322;2023-04-01T12:42:30;3.40;;;3.10;;
21215;SDS011;10765;50.954;5.322;2023-04-01T12:45:14;4.17;;;3.80;;
21215;SDS011;10765;50.954;5.322;2023-04-01T12:48:00;4.60;;;4.20;;
21215;SDS011;10765;50.954;5.322;2023-04-01T12:50:56;5.07;;;4.67;;
21215;SDS011;10765;50.954;5.322;2023-04-01T12:53:51;5.63;;;5.13;;
21215;SDS011;10765;50.954;5.322;2023-04-01T12:56:43;5.70;;;5.20;;
21215;SDS011;10765;50.954;5.322;2023-04-01T12:59:31;6.87;;;6.27;;
21215;SDS011;10765;50.954;5.322;2023-04-01T13:02:21;7.43;;;6.77;;
21215;SDS011;10765;50.954;5.322;2023-04-01T13:05:01;7.83;;;7.23;;
21215;SDS011;10765;50.954;5.322;2023-04-01T13:08:07;7.03;;;6.43;;
21215;SDS011;10765;50.954;5.322;2023-04-01T13:10:50;6.63;;;6.03;;
21215;SDS011;10765;50.954;5.322;2023-04-01T13:13:40;6.00;;;5.50;;
21215;SDS011;10765;50.954;5.322;2023-04-01T13:16:33;6.20;;;5.70;;
21215;SDS011;10765;50.954;5.322;2023-04-01T13:19:04;6.00;;;5.03;;
21215;SDS011;10765;50.954;5.322;2023-04-01T13:21:38;5.70;;;5.20;;
21215;SDS011;10765;50.954;5.322;2023-04-01T13:24:21;6.00;;;5.53;;
21215;SDS011;10765;50.954;5.322;2023-04-01T13:26:57;5.37;;;4.93;;
21215;SDS011;10765;50.954;5.322;2023-04-01T13:29:32;5.07;;;4.67;;
21215;SDS011;10765;50.954;5.322;2023-04-01T13:32:05;5.30;;;4.83;;
21215;SDS011;10765;50.954;5.322;2023-04-01T13:34:59;4.73;;;4.33;;
21215;SDS011;10765;50.954;5.322;2023-04-01T13:37:41;5.33;;;4.87;;
21215;SDS011;10765;50.954;5.322;2023-04-01T13:43:16;5.90;;;5.30;;
21215;SDS011;10765;50.954;5.322;2023-04-01T13:48:45;6.20;;;5.70;;
21215;SDS011;10765;50.954;5.322;2023-04-01T13:51:33;6.27;;;5.77;;
21215;SDS011;10765;50.954;5.322;2023-04-01T13:54:41;6.37;;;5.87;;
21215;SDS011;10765;50.954;5.322;2023-04-01T13:57:46;6.13;;;5.63;;
21215;SDS011;10765;50.954;5.322;2023-04-01T14:00:32;6.63;;;5.97;;
21215;SDS011;10765;50.954;5.322;2023-04-01T14:03:26;6.13;;;5.53;;
21215;SDS011;10765;50.954;5.322;2023-04-01T14:11:56;7.00;;;6.30;;
21215;SDS011;10765;50.954;5.322;2023-04-01T14:14:36;6.07;;;5.50;;
21215;SDS011;10765;50.954;5.322;2023-04-01T14:17:22;5.83;;;5.33;;
21215;SDS011;10765;50.954;5.322;2023-04-01T14:20:04;3.93;;;3.57;;
21215;SDS011;10765;50.954;5.322;2023-04-01T14:26:10;3.63;;;3.33;;
21215;SDS011;10765;50.954;5.322;2023-04-01T14:28:50;3.47;;;3.20;;
21215;SDS011;10765;50.954;5.322;2023-04-01T14:31:34;3.23;;;3.03;;
21215;SDS011;10765;50.954;5.322;2023-04-01T14:34:15;3.60;;;3.30;;
21215;SDS011;10765;50.954;5.322;2023-04-01T14:36:53;3.40;;;3.10;;
21215;SDS011;10765;50.954;5.322;2023-04-01T14:42:33;3.40;;;3.10;;
21215;SDS011;10765;50.954;5.322;2023-04-01T14:48:15;2.37;;;2.17;;
21215;SDS011;10765;50.954;5.322;2023-04-01T14:50:50;2.20;;;2.10;;
21215;SDS011;10765;50.954;5.322;2023-04-01T14:53:24;2.23;;;2.00;;
21215;SDS011;10765;50.954;5.322;2023-04-01T14:55:54;2.60;;;2.40;;
21215;SDS011;10765;50.954;5.322;2023-04-01T14:58:24;2.07;;;1.97;;
21215;SDS011;10765;50.954;5.322;2023-04-01T15:01:01;2.50;;;2.30;;
21215;SDS011;10765;50.954;5.322;2023-04-01T15:03:50;2.43;;;2.23;;
21215;SDS011;10765;50.954;5.322;2023-04-01T15:06:42;2.73;;;2.00;;
21215;SDS011;10765;50.954;5.322;2023-04-01T15:09:22;2.17;;;2.07;;
21215;SDS011;10765;50.954;5.322;2023-04-01T15:12:02;2.07;;;1.97;;
21215;SDS011;10765;50.954;5.322;2023-04-01T15:14:55;2.53;;;2.40;;
21215;SDS011;10765;50.954;5.322;2023-04-01T15:17:43;3.00;;;2.70;;
21215;SDS011;10765;50.954;5.322;2023-04-01T15:23:33;2.70;;;2.50;;
21215;SDS011;10765;50.954;5.322;2023-04-01T15:26:19;2.87;;;2.67;;
21215;SDS011;10765;50.954;5.322;2023-04-01T15:29:01;2.87;;;2.67;;
21215;SDS011;10765;50.954;5.322;2023-04-01T15:31:48;2.50;;;2.30;;
21215;SDS011;10765;50.954;5.322;2023-04-01T15:34:26;2.50;;;2.30;;
21215;SDS011;10765;50.954;5.322;2023-04-01T15:37:01;2.40;;;2.30;;
21215;SDS011;10765;50.954;5.322;2023-04-01T15:39:39;2.13;;;1.93;;
21215;SDS011;10765;50.954;5.322;2023-04-01T15:42:18;2.00;;;1.90;;
21215;SDS011;10765;50.954;5.322;2023-04-01T15:45:08;2.00;;;1.90;;
21215;SDS011;10765;50.954;5.322;2023-04-01T15:47:44;2.23;;;2.00;;
21215;SDS011;10765;50.954;5.322;2023-04-01T15:53:24;1.80;;;1.70;;
21215;SDS011;10765;50.954;5.322;2023-04-01T15:56:16;1.90;;;1.80;;
21215;SDS011;10765;50.954;5.322;2023-04-01T15:59:09;1.80;;;1.70;;
21215;SDS011;10765;50.954;5.322;2023-04-01T16:01:49;1.83;;;1.73;;
21215;SDS011;10765;50.954;5.322;2023-04-01T16:04:39;2.40;;;2.20;;
21215;SDS011;10765;50.954;5.322;2023-04-01T16:07:27;2.63;;;2.43;;
21215;SDS011;10765;50.954;5.322;2023-04-01T16:13:28;3.20;;;2.90;;
21215;SDS011;10765;50.954;5.322;2023-04-01T16:16:07;3.20;;;2.90;;
21215;SDS011;10765;50.954;5.322;2023-04-01T16:21:45;1.43;;;1.33;;
21215;SDS011;10765;50.954;5.322;2023-04-01T16:24:17;1.30;;;1.20;;
21215;SDS011;10765;50.954;5.322;2023-04-01T16:26:52;2.43;;;2.20;;
21215;SDS011;10765;50.954;5.322;2023-04-01T16:29:28;1.77;;;1.67;;
21215;SDS011;10765;50.954;5.322;2023-04-01T16:32:11;1.87;;;1.50;;
21215;SDS011;10765;50.954;5.322;2023-04-01T16:34:46;1.30;;;1.20;;
21215;SDS011;10765;50.954;5.322;2023-04-01T16:37:27;1.20;;;1.00;;
21215;SDS011;10765;50.954;5.322;2023-04-01T16:40:01;0.80;;;0.80;;
21215;SDS011;10765;50.954;5.322;2023-04-01T16:42:46;1.10;;;0.80;;
21215;SDS011;10765;50.954;5.322;2023-04-01T16:45:20;1.20;;;1.10;;
21215;SDS011;10765;50.954;5.322;2023-04-01T16:47:56;1.30;;;1.00;;
21215;SDS011;10765;50.954;5.322;2023-04-01T16:50:28;1.30;;;1.20;;
21215;SDS011;10765;50.954;5.322;2023-04-01T16:53:08;2.73;;;2.00;;
21215;SDS011;10765;50.954;5.322;2023-04-01T16:55:45;4.13;;;3.73;;
21215;SDS011;10765;50.954;5.322;2023-04-01T16:58:20;5.00;;;4.60;;
21215;SDS011;10765;50.954;5.322;2023-04-01T17:00:52;5.40;;;5.00;;
21215;SDS011;10765;50.954;5.322;2023-04-01T17:03:26;6.90;;;6.30;;
21215;SDS011;10765;50.954;5.322;2023-04-01T17:06:01;6.97;;;6.40;;
21215;SDS011;10765;50.954;5.322;2023-04-01T17:08:42;7.60;;;6.93;;
21215;SDS011;10765;50.954;5.322;2023-04-01T17:11:21;7.77;;;7.07;;
21215;SDS011;10765;50.954;5.322;2023-04-01T17:13:54;8.87;;;8.00;;